Time;durP1;ratioP1;P1;durP2;ratioP2;P2;SDS_P1;SDS_P2;PMS_P1;PMS_P2;Temp;Humidity;BMP_temperature;BMP_pressure;BME280_temperature;BME280_humidity;BME280_pressure;Samples;Min_cycle;Max_cycle;Signal;HPM_P1;HPM_P2
2021/07/24 00:01:55;;;;;;;;;;;;;;;21.27;52.45;94690.53;2951457;40;19994;-81
2021/07/24 00:03:57;;;;;;;;;;;;;;;21.33;52.64;94702.16;2950973;40;20035;-78
2021/07/24 00:06:18;;;;;;;;;;;;;;;21.41;52.25;94699.19;2951136;40;19953;-81
2021/07/24 00:08:19;;;;;;;;;;;;;;;21.47;52.22;94695.63;2949565;40;19985;-77
2021/07/24 00:10:21;;;;;;;;;;;;;;;21.52;52.13;94690.44;2950754;40;19949;-80
2021/07/24 00:12:23;;;;;;;;;;;;;;;21.61;52.19;94699.72;2951233;40;20294;-79
2021/07/24 00:14:25;;;;;;;;;;;;;;;21.65;51.89;94692.91;2949905;40;19944;-80
2021/07/24 00:16:27;;;;;;;;;;;;;;;21.70;51.61;94702.88;2958329;40;19953;-80
2021/07/24 00:18:29;;;;;;;;;;;;;;;21.70;51.74;94699.41;2951669;40;20221;-78
2021/07/24 00:20:30;;;;;;;;;;;;;;;21.62;51.71;94696.03;2949167;40;19944;-78
2021/07/24 00:22:32;;;;;;;;;;;;;;;21.53;51.79;94707.22;2950341;40;19969;-80
2021/07/24 00:24:33;;;;;;;;;;;;;;;21.44;52.36;94694.22;2949341;40;20021;-79
2021/07/24 00:26:35;;;;;;;;;;;;;;;21.41;52.46;94700.00;2950520;40;20323;-79
2021/07/24 00:28:37;;;;;;;;;;;;;;;21.45;52.38;94697.72;2950756;40;19988;-79
2021/07/24 00:30:39;;;;;;;;;;;;;;;21.48;52.33;94697.25;2950477;40;19945;-79
2021/07/24 00:32:41;;;;;;;;;;;;;;;21.53;52.21;94694.75;2944931;40;20253;-80
2021/07/24 00:34:42;;;;;;;;;;;;;;;21.57;52.15;94693.22;2949311;40;20037;-80
2021/07/24 00:36:44;;;;;;;;;;;;;;;21.59;52.04;94695.66;2950405;40;20490;-80
2021/07/24 00:38:46;;;;;;;;;;;;;;;21.62;51.90;94690.69;2961464;40;20248;-79
2021/07/24 00:40:59;;;;;;;;;;;;;;;21.54;51.94;94698.22;2950655;40;20006;-81
2021/07/24 00:43:01;;;;;;;;;;;;;;;21.49;52.16;94696.22;2950104;40;19960;-78
2021/07/24 00:45:03;;;;;;;;;;;;;;;21.47;52.45;94690.31;2948698;40;20042;-83
2021/07/24 00:47:04;;;;;;;;;;;;;;;21.41;52.49;94689.34;2951275;40;20002;-80
2021/07/24 00:49:06;;;;;;;;;;;;;;;21.36;52.69;94686.53;2950534;40;19944;-79
2021/07/24 00:51:08;;;;;;;;;;;;;;;21.33;52.90;94697.63;2949780;40;20241;-79
2021/07/24 00:53:11;;;;;;;;;;;;;;;21.28;52.94;94687.66;2951866;40;19941;-81
2021/07/24 00:55:13;;;;;;;;;;;;;;;20.85;53.94;94688.59;2966445;40;20320;-79
2021/07/24 00:57:15;;;;;;;;;;;;;;;20.77;54.25;94680.91;2950899;40;19959;-80
2021/07/24 00:59:17;;;;;;;;;;;;;;;20.75;54.38;94685.66;2954580;40;19951;-79
2021/07/24 01:01:19;;;;;;;;;;;;;;;20.77;54.39;94691.56;2950419;40;20016;-80
2021/07/24 01:03:21;;;;;;;;;;;;;;;20.50;55.19;94693.69;2949316;40;19945;-79
2021/07/24 01:05:22;;;;;;;;;;;;;;;20.43;55.41;94696.44;2952639;40;19957;-82
2021/07/24 01:07:24;;;;;;;;;;;;;;;20.22;56.23;94692.31;2945768;40;20393;-79
2021/07/24 01:09:26;;;;;;;;;;;;;;;19.82;57.37;94692.66;2960566;40;20038;-80
2021/07/24 01:11:27;;;;;;;;;;;;;;;19.54;58.15;94685.06;2949433;40;19941;-68
2021/07/24 01:13:29;;;;;;;;;;;;;;;19.72;57.97;94687.00;2946778;40;19937;-67
2021/07/24 01:15:31;;;;;;;;;;;;;;;19.82;57.51;94691.84;2948353;40;19945;-69
2021/07/24 01:17:33;;;;;;;;;;;;;;;19.72;57.91;94687.00;2965248;40;19944;-68
2021/07/24 01:19:34;;;;;;;;;;;;;;;19.80;57.70;94689.41;2946826;40;19970;-68
2021/07/24 01:21:36;;;;;;;;;;;;;;;19.48;58.21;94688.56;2948863;40;20309;-69
2021/07/24 01:23:38;;;;;;;;;;;;;;;19.43;58.35;94683.09;2946825;40;20307;-67
2021/07/24 01:25:47;;;;;;;;;;;;;;;18.92;60.19;94689.28;2960272;40;20299;-67
2021/07/24 01:27:48;;;;;;;;;;;;;;;18.59;61.40;94690.19;2947427;40;19945;-67
2021/07/24 01:29:50;;;;;;;;;;;;;;;18.52;61.61;94690.22;2949303;40;19949;-67
2021/07/24 01:31:54;;;;;;;;;;;;;;;18.79;61.20;94688.31;2948532;40;19941;-80
2021/07/24 01:33:56;;;;;;;;;;;;;;;19.01;60.42;94685.34;2949831;40;19949;-78
2021/07/24 01:35:58;;;;;;;;;;;;;;;19.17;59.90;94687.53;2949953;40;19953;-79
2021/07/24 01:37:59;;;;;;;;;;;;;;;18.84;60.72;94690.31;2945675;40;19962;-79
2021/07/24 01:40:01;;;;;;;;;;;;;;;18.68;61.34;94686.28;2948646;40;19973;-79
2021/07/24 01:42:02;;;;;;;;;;;;;;;18.71;61.48;94685.03;2949139;40;19941;-82
2021/07/24 01:44:04;;;;;;;;;;;;;;;18.96;60.65;94680.69;2946101;40;20002;-79
2021/07/24 01:46:05;;;;;;;;;;;;;;;19.22;59.99;94677.06;2950736;40;19964;-79
2021/07/24 01:48:16;;;;;;;;;;;;;;;19.40;59.37;94679.03;2948977;40;19941;-80
2021/07/24 01:52:49;;;;;;;;;;;;;;;18.89;60.42;94679.91;2958984;40;20201;-80
2021/07/24 01:54:52;;;;;;;;;;;;;;;18.76;61.23;94682.59;2956837;40;19941;-79
2021/07/24 01:56:53;;;;;;;;;;;;;;;18.92;60.85;94678.66;2958024;40;19945;-81
2021/07/24 01:58:55;;;;;;;;;;;;;;;19.07;60.26;94687.16;2947665;40;19940;-79
2021/07/24 02:00:58;;;;;;;;;;;;;;;19.22;59.56;94677.06;2962021;40;20012;-68
2021/07/24 02:03:00;;;;;;;;;;;;;;;18.70;61.02;94678.94;2959895;40;19943;-68
2021/07/24 02:05:04;;;;;;;;;;;;;;;18.35;62.43;94676.59;2956574;40;20302;-68
2021/07/24 02:07:07;;;;;;;;;;;;;;;18.08;63.24;94673.16;2957167;40;20290;-68
2021/07/24 02:09:08;;;;;;;;;;;;;;;17.60;64.61;94678.66;2958784;40;19948;-68
2021/07/24 02:11:10;;;;;;;;;;;;;;;17.29;65.89;94682.66;2946896;40;19945;-68
2021/07/24 02:13:12;;;;;;;;;;;;;;;17.57;64.96;94681.69;2946171;40;19953;-77
2021/07/24 02:15:13;;;;;;;;;;;;;;;17.92;63.66;94678.91;2943578;40;19946;-78
2021/07/24 02:17:15;;;;;;;;;;;;;;;17.74;63.73;94679.47;2962261;40;19952;-81
2021/07/24 02:19:17;;;;;;;;;;;;;;;17.22;65.48;94683.69;2949920;40;19948;-79
2021/07/24 02:21:19;;;;;;;;;;;;;;;16.99;66.43;94687.47;2945116;40;20036;-79
2021/07/24 02:23:20;;;;;;;;;;;;;;;16.62;67.74;94696.69;2943494;40;19937;-80
2021/07/24 02:25:22;;;;;;;;;;;;;;;16.62;68.04;94691.38;2945987;40;20202;-79
2021/07/24 02:27:24;;;;;;;;;;;;;;;16.96;67.01;94693.19;2949318;40;20304;-68
2021/07/24 02:29:25;;;;;;;;;;;;;;;17.06;66.66;94690.97;2945675;40;19945;-68
2021/07/24 02:31:27;;;;;;;;;;;;;;;17.02;66.60;94684.44;2946530;40;19965;-68
2021/07/24 02:33:28;;;;;;;;;;;;;;;16.77;67.34;94694.69;2943789;40;19933;-67
2021/07/24 02:35:30;;;;;;;;;;;;;;;16.62;67.79;94694.84;2948247;40;20075;-69
2021/07/24 02:37:31;;;;;;;;;;;;;;;16.50;68.39;94693.78;2947848;40;19941;-68
2021/07/24 02:39:33;;;;;;;;;;;;;;;16.50;68.49;94691.13;2959918;40;20292;-68
2021/07/24 02:41:35;;;;;;;;;;;;;;;16.75;67.62;94692.25;2947375;40;20265;-68
2021/07/24 02:43:36;;;;;;;;;;;;;;;17.03;66.52;94694.00;2947297;40;20000;-67
2021/07/24 02:45:38;;;;;;;;;;;;;;;17.24;65.85;94690.41;2947994;40;19938;-68
2021/07/24 02:47:40;;;;;;;;;;;;;;;17.11;65.87;94696.47;2948217;40;20003;-69
2021/07/24 02:49:41;;;;;;;;;;;;;;;17.19;66.10;94698.16;2942465;40;20119;-67
2021/07/24 02:51:43;;;;;;;;;;;;;;;17.30;65.35;94696.75;2942812;40;20039;-68
2021/07/24 02:53:44;;;;;;;;;;;;;;;17.32;65.33;94698.16;2949407;40;20441;-67
2021/07/24 02:55:46;;;;;;;;;;;;;;;17.47;64.96;94699.84;2950389;40;19937;-69
2021/07/24 02:57:47;;;;;;;;;;;;;;;17.72;64.25;94694.75;2946808;40;19949;-67
2021/07/24 02:59:49;;;;;;;;;;;;;;;18.05;63.15;94701.91;2942665;40;19953;-68
2021/07/24 03:01:50;;;;;;;;;;;;;;;18.20;62.20;94700.69;2946920;40;20083;-68
2021/07/24 03:03:52;;;;;;;;;;;;;;;18.37;61.84;94700.25;2951941;40;19956;-69
2021/07/24 03:05:54;;;;;;;;;;;;;;;18.55;61.33;94692.44;2949907;40;19944;-69
2021/07/24 03:07:55;;;;;;;;;;;;;;;18.73;60.47;94697.06;2943302;40;19945;-68
2021/07/24 03:09:57;;;;;;;;;;;;;;;18.84;59.86;94700.94;2947847;40;19945;-67
2021/07/24 03:11:58;;;;;;;;;;;;;;;18.91;59.88;94695.63;2944121;40;20075;-68
2021/07/24 03:14:00;;;;;;;;;;;;;;;19.00;59.53;94699.66;2949563;40;20236;-67
2021/07/24 03:16:02;;;;;;;;;;;;;;;19.06;59.24;94700.66;2961694;40;20328;-79
2021/07/24 03:18:04;;;;;;;;;;;;;;;19.11;59.11;94699.00;2944199;40;20309;-79
2021/07/24 03:20:06;;;;;;;;;;;;;;;19.21;58.77;94709.19;2946825;40;19959;-80
2021/07/24 03:22:07;;;;;;;;;;;;;;;19.30;58.22;94694.63;2945751;40;20120;-79
2021/07/24 03:24:09;;;;;;;;;;;;;;;19.35;57.87;94696.63;2944464;40;19938;-79
2021/07/24 03:26:10;;;;;;;;;;;;;;;19.42;57.73;94695.56;2949902;40;19948;-80
2021/07/24 03:28:12;;;;;;;;;;;;;;;19.44;57.73;94698.00;2950116;40;19973;-80
2021/07/24 03:30:13;;;;;;;;;;;;;;;19.52;57.44;94699.59;2951320;40;20047;-79
2021/07/24 03:32:15;;;;;;;;;;;;;;;19.53;57.62;94699.38;2965583;40;19997;-78
2021/07/24 03:34:17;;;;;;;;;;;;;;;19.56;57.23;94704.25;2951216;40;20043;-79
2021/07/24 03:36:18;;;;;;;;;;;;;;;19.59;57.18;94709.13;2965731;40;20346;-80
2021/07/24 03:38:20;;;;;;;;;;;;;;;19.62;57.22;94714.03;2949911;40;19941;-79
2021/07/24 03:40:22;;;;;;;;;;;;;;;19.67;57.00;94712.56;2943693;40;19958;-67
2021/07/24 03:42:23;;;;;;;;;;;;;;;19.67;57.05;94704.59;2946968;40;19946;-70
2021/07/24 03:44:25;;;;;;;;;;;;;;;19.65;57.02;94702.16;2950969;40;19949;-68
2021/07/24 03:46:26;;;;;;;;;;;;;;;19.69;56.90;94711.31;2944712;40;20052;-68
2021/07/24 03:48:28;;;;;;;;;;;;;;;19.73;57.04;94711.75;2948084;40;20103;-68
2021/07/24 03:50:31;;;;;;;;;;;;;;;19.72;57.00;94718.88;2949682;40;19952;-68
2021/07/24 03:52:32;;;;;;;;;;;;;;;19.77;56.82;94715.63;2951956;40;19990;-68
2021/07/24 03:54:34;;;;;;;;;;;;;;;19.79;56.63;94719.69;2958163;40;19957;-67
2021/07/24 03:56:36;;;;;;;;;;;;;;;19.81;56.50;94716.78;2943689;40;20018;-68
2021/07/24 03:58:37;;;;;;;;;;;;;;;19.82;56.63;94719.22;2949314;40;20407;-67
2021/07/24 04:00:43;;;;;;;;;;;;;;;19.83;56.35;94720.88;2944293;40;20046;-67
2021/07/24 04:02:45;;;;;;;;;;;;;;;19.84;56.24;94727.81;2945852;40;19949;-70
2021/07/24 04:04:50;;;;;;;;;;;;;;;19.82;56.23;94729.88;2947725;40;19961;-69
2021/07/24 04:06:52;;;;;;;;;;;;;;;19.84;56.27;94730.47;2950558;40;19937;-69
2021/07/24 04:08:55;;;;;;;;;;;;;;;19.89;56.20;94729.00;2945706;40;20280;-80
2021/07/24 04:10:56;;;;;;;;;;;;;;;19.93;56.09;94727.53;2960224;40;20028;-81
2021/07/24 04:12:58;;;;;;;;;;;;;;;19.88;55.95;94730.84;2950755;40;19944;-79
2021/07/24 04:15:00;;;;;;;;;;;;;;;19.88;56.31;94744.16;2962601;40;19941;-79
2021/07/24 04:17:01;;;;;;;;;;;;;;;19.91;56.01;94734.91;2961960;40;19952;-79
2021/07/24 04:19:03;;;;;;;;;;;;;;;19.95;55.98;94739.59;2944976;40;19945;-79
2021/07/24 04:21:04;;;;;;;;;;;;;;;20.01;55.87;94738.72;2951677;40;20318;-80
2021/07/24 04:23:06;;;;;;;;;;;;;;;20.15;55.66;94741.28;2958738;40;19936;-80
2021/07/24 04:25:08;;;;;;;;;;;;;;;20.20;55.18;94736.13;2944441;40;19945;-79
2021/07/24 04:27:09;;;;;;;;;;;;;;;20.24;54.85;94734.63;2949163;40;19991;-81
2021/07/24 04:29:11;;;;;;;;;;;;;;;20.20;55.23;94736.94;2964268;40;19936;-80
2021/07/24 04:31:13;;;;;;;;;;;;;;;20.27;54.70;94736.88;2945757;40;19960;-69
2021/07/24 04:33:15;;;;;;;;;;;;;;;20.32;54.75;94742.34;2960629;40;20566;-68
2021/07/24 04:35:17;;;;;;;;;;;;;;;20.23;55.03;94736.50;2947089;40;19998;-68
2021/07/24 04:37:18;;;;;;;;;;;;;;;19.77;56.40;94742.19;2946371;40;20079;-69
2021/07/24 04:39:21;;;;;;;;;;;;;;;19.78;56.71;94738.50;2946223;40;20312;-68
2021/07/24 04:41:22;;;;;;;;;;;;;;;19.33;57.69;94741.97;2958424;40;19999;-68
2021/07/24 04:43:24;;;;;;;;;;;;;;;19.16;58.64;94741.66;2949730;40;20298;-69
2021/07/24 04:45:26;;;;;;;;;;;;;;;19.09;58.81;94740.06;2953367;40;20263;-69
2021/07/24 04:47:27;;;;;;;;;;;;;;;18.98;58.85;94736.22;2942025;40;20410;-69
2021/07/24 04:49:29;;;;;;;;;;;;;;;19.07;58.76;94748.22;2943575;40;20002;-68
2021/07/24 04:51:30;;;;;;;;;;;;;;;19.04;58.89;94743.34;2945036;40;20290;-68
2021/07/24 04:53:32;;;;;;;;;;;;;;;18.81;59.30;94742.00;2958616;40;19937;-67
2021/07/24 04:55:35;;;;;;;;;;;;;;;18.88;59.45;94746.47;2941298;40;19961;-67
2021/07/24 04:57:37;;;;;;;;;;;;;;;19.13;58.49;94746.59;2943566;40;20026;-69
2021/07/24 04:59:48;;;;;;;;;;;;;;;19.13;58.53;94752.72;2959912;40;20004;-69
2021/07/24 05:01:49;;;;;;;;;;;;;;;19.10;58.60;94747.81;2958232;40;19941;-69
2021/07/24 05:03:51;;;;;;;;;;;;;;;19.14;58.78;94750.84;2959768;40;19955;-81
2021/07/24 05:05:53;;;;;;;;;;;;;;;19.10;58.42;94747.00;2964553;40;19940;-69
2021/07/24 05:07:55;;;;;;;;;;;;;;;19.30;58.29;94752.25;2952715;40;19936;-67
2021/07/24 05:09:56;;;;;;;;;;;;;;;19.56;57.85;94746.78;2958629;40;19975;-69
2021/07/24 05:11:58;;;;;;;;;;;;;;;19.68;57.27;94749.56;2946072;40;19948;-67
2021/07/24 05:14:00;;;;;;;;;;;;;;;19.87;57.13;94755.78;2943515;40;19989;-68
2021/07/24 05:16:01;;;;;;;;;;;;;;;20.11;56.60;94746.22;2960340;40;20030;-69
2021/07/24 05:18:06;;;;;;;;;;;;;;;20.39;55.86;94750.28;2948290;40;19957;-69
2021/07/24 05:20:08;;;;;;;;;;;;;;;20.57;55.22;94752.16;2948280;40;19951;-68
2021/07/24 05:22:10;;;;;;;;;;;;;;;20.75;54.66;94746.88;2946506;40;20293;-79
2021/07/24 05:24:12;;;;;;;;;;;;;;;20.86;54.17;94740.00;2961859;40;19949;-81
2021/07/24 05:26:14;;;;;;;;;;;;;;;21.00;53.83;94743.34;2949777;40;20442;-80
2021/07/24 05:28:15;;;;;;;;;;;;;;;21.16;53.40;94744.59;2946739;40;19945;-79
2021/07/24 05:30:17;;;;;;;;;;;;;;;21.20;53.22;94746.56;2948207;40;20196;-80
2021/07/24 05:32:19;;;;;;;;;;;;;;;21.12;52.57;94743.41;2950064;40;19965;-81
2021/07/24 05:34:20;;;;;;;;;;;;;;;20.82;53.02;94744.97;2963946;40;20002;-83
2021/07/24 05:36:22;;;;;;;;;;;;;;;20.91;53.38;94744.66;2962020;40;19945;-81
2021/07/24 05:38:23;;;;;;;;;;;;;;;21.10;53.43;94734.81;2951217;40;20022;-79
2021/07/24 05:40:25;;;;;;;;;;;;;;;21.23;52.87;94742.63;2944293;40;19941;-80
2021/07/24 05:42:26;;;;;;;;;;;;;;;21.39;51.90;94736.69;2943941;40;20297;-82
2021/07/24 05:44:28;;;;;;;;;;;;;;;21.44;51.65;94738.72;2956777;40;20034;-80
2021/07/24 05:46:30;;;;;;;;;;;;;;;21.27;51.96;94736.66;2946268;40;20028;-80
2021/07/24 05:48:34;;;;;;;;;;;;;;;21.30;52.21;94742.59;2950006;40;20179;-80
2021/07/24 05:50:36;;;;;;;;;;;;;;;21.31;52.14;94731.69;2951190;40;19952;-78
2021/07/24 05:52:37;;;;;;;;;;;;;;;21.23;51.17;94737.31;2948305;40;20407;-80
2021/07/24 05:54:39;;;;;;;;;;;;;;;20.99;51.99;94739.88;2951014;40;19941;-83
2021/07/24 05:56:41;;;;;;;;;;;;;;;21.15;51.77;94740.31;2950569;40;19953;-80
2021/07/24 05:58:42;;;;;;;;;;;;;;;21.23;51.28;94742.63;2951018;40;20327;-82
2021/07/24 06:00:44;;;;;;;;;;;;;;;21.28;51.41;94738.28;2948123;40;19987;-78
2021/07/24 06:02:46;;;;;;;;;;;;;;;21.50;50.60;94737.81;2948594;40;20329;-81
2021/07/24 06:04:47;;;;;;;;;;;;;;;21.71;50.38;94744.50;2956565;40;19949;-82
2021/07/24 06:06:49;;;;;;;;;;;;;;;21.90;49.06;94737.25;2948210;40;19981;-82
2021/07/24 06:08:50;;;;;;;;;;;;;;;22.08;49.05;94733.69;2952913;40;19949;-82
2021/07/24 06:10:52;;;;;;;;;;;;;;;22.22;48.63;94742.28;2955731;40;19937;-80
2021/07/24 06:12:53;;;;;;;;;;;;;;;22.33;49.04;94746.88;2954315;40;20306;-80
2021/07/24 06:14:55;;;;;;;;;;;;;;;22.51;48.50;94747.81;2951264;40;20359;-80
2021/07/24 06:16:59;;;;;;;;;;;;;;;22.08;49.12;94747.84;2963062;40;21264;-80
2021/07/24 06:19:00;;;;;;;;;;;;;;;21.26;50.60;94744.88;2961920;40;19936;-79
2021/07/24 06:21:02;;;;;;;;;;;;;;;21.07;50.77;94752.06;2949299;40;20622;-80
2021/07/24 06:23:04;;;;;;;;;;;;;;;21.12;51.44;94760.19;2947485;40;19945;-81
2021/07/24 06:25:05;;;;;;;;;;;;;;;21.36;51.07;94750.50;2944654;40;19949;-80
2021/07/24 06:27:07;;;;;;;;;;;;;;;21.41;50.41;94752.47;2945738;40;19963;-82
2021/07/24 06:29:09;;;;;;;;;;;;;;;21.57;50.44;94749.19;2947179;40;19948;-80
2021/07/24 06:31:10;;;;;;;;;;;;;;;21.78;50.19;94747.88;2947288;40;19945;-81
2021/07/24 06:33:12;;;;;;;;;;;;;;;21.91;49.90;94743.41;2946508;40;19937;-80
2021/07/24 06:35:13;;;;;;;;;;;;;;;22.14;50.28;94740.78;2948978;40;20090;-84
2021/07/24 06:37:15;;;;;;;;;;;;;;;22.33;49.09;94749.53;2947807;40;19954;-81
2021/07/24 06:39:19;;;;;;;;;;;;;;;22.36;48.34;94741.06;2949366;40;20144;-79
2021/07/24 06:41:20;;;;;;;;;;;;;;;22.28;48.62;94742.22;2944615;40;20034;-79
2021/07/24 06:43:22;;;;;;;;;;;;;;;22.45;48.63;94741.53;2946158;40;19949;-81
2021/07/24 06:45:24;;;;;;;;;;;;;;;22.57;47.90;94741.53;2942547;40;20367;-81
2021/07/24 06:47:26;;;;;;;;;;;;;;;22.74;47.78;94738.97;2950089;40;19967;-81
2021/07/24 06:49:27;;;;;;;;;;;;;;;22.64;47.41;94744.88;2944791;40;20165;-81
2021/07/24 06:51:29;;;;;;;;;;;;;;;22.69;47.74;94745.81;2950379;40;20360;-79
2021/07/24 06:53:30;;;;;;;;;;;;;;;22.49;47.83;94732.81;2950199;40;20009;-81
2021/07/24 06:55:32;;;;;;;;;;;;;;;22.04;48.89;94741.31;2951018;40;20305;-80
2021/07/24 06:57:35;;;;;;;;;;;;;;;21.81;49.94;94730.59;2942488;40;20034;-81
2021/07/24 06:59:37;;;;;;;;;;;;;;;21.55;50.31;94743.28;2959316;40;19956;-80
2021/07/24 07:01:38;;;;;;;;;;;;;;;21.34;50.99;94741.06;2944436;40;19941;-81
2021/07/24 07:03:40;;;;;;;;;;;;;;;21.37;50.97;94737.97;2945257;40;20057;-80
2021/07/24 07:05:41;;;;;;;;;;;;;;;21.50;50.88;94734.34;2941892;40;20382;-81
2021/07/24 07:07:43;;;;;;;;;;;;;;;21.77;50.20;94735.59;2957840;40;20217;-80
2021/07/24 07:09:45;;;;;;;;;;;;;;;21.99;49.71;94735.88;2943483;40;19965;-82
2021/07/24 07:11:46;;;;;;;;;;;;;;;22.11;49.31;94735.88;2949888;40;19941;-79
2021/07/24 07:13:48;;;;;;;;;;;;;;;22.46;48.99;94727.94;2950753;40;20760;-82
2021/07/24 07:15:49;;;;;;;;;;;;;;;22.68;48.69;94736.19;2948821;40;19953;-81
2021/07/24 07:17:51;;;;;;;;;;;;;;;22.89;48.05;94732.09;2951084;40;19957;-79
2021/07/24 07:19:53;;;;;;;;;;;;;;;22.45;48.32;94733.50;2942897;40;19947;-80
2021/07/24 07:21:55;;;;;;;;;;;;;;;22.43;47.53;94736.41;2949007;40;19974;-81
2021/07/24 07:23:56;;;;;;;;;;;;;;;22.26;47.68;94738.13;2948114;40;20234;-80
2021/07/24 07:25:58;;;;;;;;;;;;;;;22.38;47.73;94728.28;2943893;40;20023;-79
2021/07/24 07:27:59;;;;;;;;;;;;;;;22.47;47.29;94734.09;2944698;40;20318;-68
2021/07/24 07:30:01;;;;;;;;;;;;;;;22.32;47.69;94731.06;2944653;40;20394;-68
2021/07/24 07:32:03;;;;;;;;;;;;;;;22.41;47.17;94733.19;2942859;40;20023;-68
2021/07/24 07:34:05;;;;;;;;;;;;;;;22.60;47.32;94739.19;2944833;40;19999;-68
2021/07/24 07:36:06;;;;;;;;;;;;;;;22.86;47.23;94727.22;2961986;40;20320;-68
2021/07/24 07:38:08;;;;;;;;;;;;;;;23.10;46.28;94732.53;2949275;40;20200;-67
2021/07/24 07:40:10;;;;;;;;;;;;;;;23.15;45.98;94729.97;2944838;40;19948;-69
2021/07/24 07:42:11;;;;;;;;;;;;;;;23.05;46.35;94733.25;2958926;40;19972;-67
2021/07/24 07:44:13;;;;;;;;;;;;;;;23.21;46.35;94729.03;2947927;40;20027;-69
2021/07/24 07:46:14;;;;;;;;;;;;;;;23.45;46.24;94737.78;2949219;40;19941;-68
2021/07/24 07:48:16;;;;;;;;;;;;;;;23.76;45.14;94735.69;2965975;40;19952;-66
2021/07/24 07:50:18;;;;;;;;;;;;;;;23.85;44.67;94734.25;2957822;40;20304;-68
2021/07/24 07:52:19;;;;;;;;;;;;;;;23.82;44.43;94729.38;2941841;40;20043;-70
2021/07/24 07:54:20;;;;;;;;;;;;;;;23.97;44.41;94723.50;2945766;40;20136;-68
2021/07/24 07:56:22;;;;;;;;;;;;;;;24.03;44.72;94730.56;2942504;40;19977;-67
2021/07/24 07:58:24;;;;;;;;;;;;;;;23.78;44.55;94728.25;2943574;40;19945;-80
2021/07/24 08:00:25;;;;;;;;;;;;;;;23.45;45.05;94734.31;2943583;40;19941;-83
2021/07/24 08:02:27;;;;;;;;;;;;;;;23.65;45.40;94728.50;2944778;40;19941;-82
2021/07/24 08:04:29;;;;;;;;;;;;;;;23.79;45.06;94729.88;2946509;40;19988;-80
2021/07/24 08:06:30;;;;;;;;;;;;;;;24.07;44.12;94728.19;2947750;40;19944;-68
2021/07/24 08:08:32;;;;;;;;;;;;;;;24.41;43.94;94715.59;2946282;40;20077;-69
2021/07/24 08:10:36;;;;;;;;;;;;;;;24.71;43.43;94722.50;2945489;40;19945;-67
2021/07/24 08:12:38;;;;;;;;;;;;;;;24.94;42.96;94724.16;2960174;40;19956;-70
2021/07/24 08:14:40;;;;;;;;;;;;;;;25.05;42.21;94717.06;2948545;40;20006;-68
2021/07/24 08:16:44;;;;;;;;;;;;;;;24.86;42.02;94717.34;2947168;40;19949;-69
2021/07/24 08:18:46;;;;;;;;;;;;;;;24.93;41.43;94720.69;2948841;40;19953;-69
2021/07/24 08:20:48;;;;;;;;;;;;;;;25.05;41.64;94714.38;2947325;40;20042;-68
2021/07/24 08:22:49;;;;;;;;;;;;;;;25.21;41.35;94716.22;2947355;40;19941;-68
2021/07/24 08:24:51;;;;;;;;;;;;;;;25.08;40.96;94713.88;2947569;40;19949;-68
2021/07/24 08:26:52;;;;;;;;;;;;;;;25.13;41.18;94717.44;2950743;40;19933;-68
2021/07/24 08:28:54;;;;;;;;;;;;;;;24.63;40.81;94706.84;2950033;40;19963;-69
2021/07/24 08:30:56;;;;;;;;;;;;;;;24.86;41.41;94720.03;2949230;40;20283;-68
2021/07/24 08:32:58;;;;;;;;;;;;;;;25.20;40.52;94711.91;2948391;40;19941;-68
2021/07/24 08:34:59;;;;;;;;;;;;;;;25.32;39.49;94711.78;2958339;40;20771;-69
2021/07/24 08:37:01;;;;;;;;;;;;;;;25.27;39.39;94717.06;2944652;40;20325;-68
2021/07/24 08:39:02;;;;;;;;;;;;;;;24.97;40.09;94712.94;2948288;40;19948;-68
2021/07/24 08:41:04;;;;;;;;;;;;;;;24.69;40.22;94705.88;2945930;40;20285;-68
2021/07/24 08:43:06;;;;;;;;;;;;;;;24.59;40.66;94703.88;2945792;40;20034;-70
2021/07/24 08:45:08;;;;;;;;;;;;;;;24.78;40.69;94708.94;2944675;40;19955;-68
2021/07/24 08:47:10;;;;;;;;;;;;;;;24.92;40.40;94705.63;2949596;40;19941;-82
2021/07/24 08:49:11;;;;;;;;;;;;;;;24.75;40.08;94712.91;2949820;40;19933;-80
2021/07/24 08:51:14;;;;;;;;;;;;;;;24.59;40.08;94695.84;2948998;40;19991;-82
2021/07/24 08:53:19;;;;;;;;;;;;;;;24.64;40.99;94692.41;2954391;40;20363;-82
2021/07/24 08:55:21;;;;;;;;;;;;;;;25.03;39.97;94708.44;2966780;40;19936;-78
2021/07/24 08:57:28;;;;;;;;;;;;;;;25.09;39.40;94710.16;2950825;40;19945;-81
2021/07/24 08:59:29;;;;;;;;;;;;;;;25.14;39.67;94702.97;2950658;40;20308;-79
2021/07/24 09:01:31;;;;;;;;;;;;;;;25.30;38.98;94705.88;2965116;40;19953;-82
2021/07/24 09:03:33;;;;;;;;;;;;;;;25.34;38.67;94707.00;2966553;40;19928;-81
2021/07/24 09:05:35;;;;;;;;;;;;;;;25.51;38.57;94707.72;2963624;40;19953;-81
2021/07/24 09:07:39;;;;;;;;;;;;;;;25.75;38.51;94702.84;2953533;40;20380;-80
2021/07/24 09:09:41;;;;;;;;;;;;;;;26.01;37.92;94708.47;2965665;40;20245;-82
2021/07/24 09:11:42;;;;;;;;;;;;;;;26.04;37.93;94707.97;2961193;40;20288;-82
2021/07/24 09:13:44;;;;;;;;;;;;;;;25.58;38.50;94712.88;2947493;40;19953;-80
2021/07/24 09:15:45;;;;;;;;;;;;;;;24.59;40.11;94708.41;2951016;40;19944;-80
2021/07/24 09:17:47;;;;;;;;;;;;;;;24.57;40.71;94705.97;2965840;40;19996;-81
2021/07/24 09:19:49;;;;;;;;;;;;;;;24.85;39.76;94707.69;2947211;40;20268;-81
2021/07/24 09:21:50;;;;;;;;;;;;;;;25.23;38.73;94710.59;2965036;40;20043;-82
2021/07/24 09:23:52;;;;;;;;;;;;;;;25.41;38.92;94712.16;2945421;40;19962;-79
2021/07/24 09:25:54;;;;;;;;;;;;;;;25.70;38.54;94710.81;2950137;40;19949;-81
2021/07/24 09:28:00;;;;;;;;;;;;;;;25.63;38.42;94714.78;2965451;40;20334;-79
2021/07/24 09:30:03;;;;;;;;;;;;;;;25.67;38.77;94716.72;2963079;40;19984;-79
2021/07/24 09:32:05;;;;;;;;;;;;;;;25.47;39.30;94716.53;2951949;40;19961;-81
2021/07/24 09:34:11;;;;;;;;;;;;;;;25.30;39.21;94713.91;2966517;40;20021;-80
2021/07/24 09:36:13;;;;;;;;;;;;;;;25.09;40.12;94720.88;2948775;40;19941;-81
2021/07/24 09:38:16;;;;;;;;;;;;;;;24.57;40.74;94714.00;2962715;40;19940;-80
2021/07/24 09:40:19;;;;;;;;;;;;;;;24.64;40.69;94709.28;2960909;40;19955;-69
2021/07/24 09:42:20;;;;;;;;;;;;;;;24.31;42.68;94718.97;2944751;40;19945;-68
2021/07/24 09:44:33;;;;;;;;;;;;;;;24.50;42.50;94719.53;2946413;40;19952;-70
2021/07/24 09:46:35;;;;;;;;;;;;;;;24.17;43.09;94727.56;2947522;40;19949;-69
2021/07/24 09:48:37;;;;;;;;;;;;;;;24.40;42.79;94722.03;2947918;40;20020;-67
2021/07/24 09:50:41;;;;;;;;;;;;;;;24.40;43.67;94731.94;2957656;40;20245;-68
2021/07/24 09:52:46;;;;;;;;;;;;;;;24.07;44.42;94730.88;2961117;40;20257;-68
2021/07/24 09:54:48;;;;;;;;;;;;;;;23.87;45.26;94728.66;2945560;40;20003;-69
2021/07/24 09:56:50;;;;;;;;;;;;;;;23.70;45.13;94734.78;2947563;40;19973;-68
2021/07/24 09:58:51;;;;;;;;;;;;;;;23.90;45.14;94731.69;2944306;40;20455;-69
2021/07/24 10:01:03;;;;;;;;;;;;;;;24.18;45.00;94742.53;2957583;40;19937;-68
2021/07/24 10:03:05;;;;;;;;;;;;;;;24.47;43.86;94740.59;2945422;40;20063;-70
2021/07/24 10:05:07;;;;;;;;;;;;;;;24.59;43.75;94737.88;2943513;40;19947;-67
2021/07/24 10:07:09;;;;;;;;;;;;;;;24.81;43.24;94730.69;2960166;40;19940;-69
2021/07/24 10:09:11;;;;;;;;;;;;;;;24.92;43.14;94745.03;2944364;40;19953;-67
2021/07/24 10:11:12;;;;;;;;;;;;;;;24.61;43.40;94741.09;2948651;40;19937;-68
2021/07/24 10:13:14;;;;;;;;;;;;;;;24.65;43.44;94745.75;2947636;40;19945;-69
2021/07/24 10:15:17;;;;;;;;;;;;;;;25.03;42.24;94737.94;2964215;40;20010;-82
2021/07/24 10:17:18;;;;;;;;;;;;;;;25.27;41.10;94743.88;2951069;40;20000;-81
2021/07/24 10:19:23;;;;;;;;;;;;;;;25.49;41.13;94746.56;2955910;40;19941;-81
2021/07/24 10:21:25;;;;;;;;;;;;;;;25.76;40.97;94746.59;2947814;40;19987;-82
2021/07/24 10:23:28;;;;;;;;;;;;;;;25.70;39.52;94751.06;2953377;40;20018;-82
2021/07/24 10:25:30;;;;;;;;;;;;;;;25.75;40.07;94755.72;2949601;40;19985;-80
2021/07/24 10:27:32;;;;;;;;;;;;;;;26.00;38.45;94754.34;2960306;40;20235;-67
2021/07/24 10:29:35;;;;;;;;;;;;;;;25.96;37.47;94751.34;2944502;40;19973;-70
2021/07/24 10:31:37;;;;;;;;;;;;;;;25.80;36.71;94747.69;2958055;40;19977;-69
2021/07/24 10:33:39;;;;;;;;;;;;;;;25.43;37.23;94748.38;2947765;40;19941;-69
2021/07/24 10:35:41;;;;;;;;;;;;;;;25.58;37.41;94745.06;2957997;40;19950;-82
2021/07/24 10:37:43;;;;;;;;;;;;;;;25.84;36.52;94751.50;2949793;40;20027;-80
2021/07/24 10:39:44;;;;;;;;;;;;;;;25.31;35.93;94745.81;2951590;40;19939;-81